Мирный

Карта отелей и гостиниц, располагающихся рядом с аэропортом Мирный :

Мирный Республика Саха (Якутия) 62° 32' 4.8012" N, 114° 2' 20.3388" E
Код аэродрома ИКАО
UERR
Код аэродрома RU
УЕРР
Координаты
N62.53467° E114.03898°
Превышение над уровнем моря
361
Основная полоса
07/25
Курс магнитный
067/247
Длина основной ВПП
2805
Ширина основной ВПП
45
Покрытие основной ВПП
Твёрдое (бетон)
Освещение ВПП
Постоянное
Тип: 
Аэродром
Принадлежность: 
ГА
Статус: 
Действующий
Страна: 
Россия
Регион: 
Республика Саха (Якутия)
Дополнительная информация: 
Оператор: Мирнинское АП АК «Алроса». ЭССО: ОМИ "Транскон" (Чехия). Военный индекс: XERR / ЬЕРР. Обеспечивает ряд региональных рейсов, а также внутренние прямые рейсы в Иркутск, Красноярск, Новосибирск, Москву. Является запасным аэропортом на трансконтинентальных маршрутах из Северной Америки в Азию, выполняемых в соответствии с международным стандартом ETOPS. В экстренных ситуациях может принять такие лайнеры, как Airbus A300, Boeing 757, Boeing 767 и др.
Схемы аэропортов: 
Погода: 

Авиационная погода в Мирном

Регион: 
Погода METAR: 
UERR 281200Z 08006MPS 9999 BKN026 02/M04 Q1016 R07/CLRD60 NOSIG RMK QFE732/0976
Время наблюдения
2021-09-28T12:00:00Z
Температура C
2.0
Точка росы
-4.0
Направление ветра
80
Скорость ветра (узлы)
12
Метео видимость
6.21
Явления погоды
Условия полета
MVFR
Аэропорт подробнее: 

Найти трансфер

С помощью этой формы Вы можете найти трансфер из аэропорта Мирный в город, аэропорт или вокзал:

Карта места

Javascript is required to view this map.

Погода в аэропортах:

Авиационная погода в Магнитогорске

Погода METAR: 
USCM 281200Z 03010MPS 4500 -SHRA BR OVC010CB 02/02 Q1016 R36/290055 TEMPO 02015MPS 1200 SHSNRA BR VV004 RMK QFE724
Время наблюдения
2021-09-28T12:00:00Z
Температура C
2.0
Точка росы
2.0
Направление ветра
30
Скорость ветра (узлы)
19
Метео видимость
2.8
Явления погоды
-SHRA BR
Условия полета
IFR
Аэропорт подробнее: 

Авиационная погода в Павлодаре

Регион: 
Погода METAR: 
UASP 281300Z 09005MPS 9999 -RA OVC049 07/03 Q1012 NOSIG RMK QFE749/0999
Время наблюдения
2021-09-28T13:00:00Z
Температура C
7.0
Точка росы
3.0
Направление ветра
90
Скорость ветра (узлы)
10
Метео видимость
6.21
Явления погоды
-RA
Условия полета
VFR
Аэропорт подробнее: 

Авиационная погода в Волгограде

Регион: 
Погода METAR: 
URWW 281200Z 07005MPS 9999 -SHRA BKN037CB 12/08 Q1020 R06/010070 TEMPO 1200 TSRAGR BKN004 SCT020CB
Время наблюдения
2021-09-28T12:00:00Z
Температура C
12.0
Точка росы
8.0
Направление ветра
70
Скорость ветра (узлы)
10
Метео видимость
6.21
Явления погоды
-SHRA
Условия полета
VFR
Аэропорт подробнее: 

Авиационная погода в Костанае

Регион: 
Погода METAR: 
UAUU 281200Z 04009G15MPS 9999 -RA BKN011 OVC033 04/03 Q1011 R33/290160 NOSIG RMK QFE742/0990
Время наблюдения
2021-09-28T12:00:00Z
Температура C
4.0
Точка росы
3.0
Направление ветра
40
Скорость ветра (узлы)
17
Метео видимость
6.21
Явления погоды
-RA
Условия полета
MVFR
Аэропорт подробнее: